Terminal Aerodrome Forecast
Issued by NWS Binghamton, NY

Home | Current Version | Previous Version | Text Only | Print | Product List | Glossary On
Versions: 1 2 3 4 5 6 7 8 9 10 11 12 13 14 15 16 17 18 19
766
FTUS41 KBGM 191123
TAFSYR
TAF
KSYR 191123Z 1912/2012 27008KT P6SM OVC020
      TEMPO 1912/1915 OVC015
     FM192200 VRB03KT P6SM OVC020
     FM200200 00000KT 5SM BR OVC020=

USA.gov is the U.S. government's official web portal to all federal, state and local government web resources and services.